createdAt,value
2018-09-25T00:00:27.218Z,10.7
2018-09-25T00:01:07.629Z,10.73
2018-09-25T00:01:48.033Z,10.73
2018-09-25T00:02:28.506Z,10.69
2018-09-25T00:03:08.855Z,10.63
2018-09-25T00:03:49.310Z,10.69
2018-09-25T00:04:29.716Z,10.58
2018-09-25T00:05:10.140Z,10.54
2018-09-25T00:05:50.651Z,10.55
2018-09-25T00:06:30.963Z,10.55
2018-09-25T00:07:11.367Z,10.47
2018-09-25T00:07:51.802Z,10.57
2018-09-25T00:08:32.249Z,10.49
2018-09-25T00:09:12.562Z,10.47
2018-09-25T00:09:53.048Z,10.46
2018-09-25T00:10:33.430Z,10.44
2018-09-25T00:11:13.840Z,10.38
2018-09-25T00:11:54.202Z,10.39
2018-09-25T00:12:34.573Z,10.34
2018-09-25T00:13:14.973Z,10.34
2018-09-25T00:13:55.396Z,10.35
2018-09-25T00:14:35.848Z,10.35
2018-09-25T00:15:16.282Z,10.32
2018-09-25T00:15:56.716Z,10.28
2018-09-25T00:16:37.152Z,10.25
2018-09-25T00:17:17.510Z,10.24
2018-09-25T00:17:57.892Z,10.22
2018-09-25T00:18:38.297Z,10.28
2018-09-25T00:19:18.679Z,10.26
2018-09-25T00:19:59.079Z,10.24
2018-09-25T00:20:39.479Z,10.22
2018-09-25T00:21:19.870Z,10.2
2018-09-25T00:22:00.284Z,10.17
2018-09-25T00:22:40.621Z,10.13
2018-09-25T00:23:21.049Z,10.18
2018-09-25T00:24:01.400Z,10.14
2018-09-25T00:24:41.799Z,10.16
2018-09-25T00:25:22.169Z,10.16
2018-09-25T00:26:02.608Z,10.1
2018-09-25T00:26:43.020Z,10.06
2018-09-25T00:27:23.429Z,10.04
2018-09-25T00:28:03.788Z,10.01
2018-09-25T00:28:44.202Z,9.98
2018-09-25T00:29:24.622Z,10.02
2018-09-25T00:30:05.096Z,9.93
2018-09-25T00:30:45.514Z,10.04
2018-09-25T00:31:25.833Z,9.99
2018-09-25T00:32:06.218Z,10.02
2018-09-25T00:32:46.658Z,9.99
2018-09-25T00:33:27.150Z,10.02
2018-09-25T00:34:07.594Z,9.98
2018-09-25T00:34:47.929Z,10.02
2018-09-25T00:35:28.399Z,9.99
2018-09-25T00:36:08.750Z,10.06
2018-09-25T00:36:49.168Z,9.99
2018-09-25T00:37:29.640Z,10.13
2018-09-25T00:38:09.991Z,10.16
2018-09-25T00:38:50.332Z,10.17
2018-09-25T00:39:30.760Z,10.2
2018-09-25T00:40:11.132Z,10.2
2018-09-25T00:40:51.559Z,10.26
2018-09-25T00:41:32.033Z,10.26
2018-09-25T00:42:12.420Z,10.25
2018-09-25T00:42:52.893Z,10.24
2018-09-25T00:43:33.284Z,10.14
2018-09-25T00:44:13.718Z,10.24
2018-09-25T00:44:54.143Z,10.25
2018-09-25T00:45:34.555Z,10.22
2018-09-25T00:46:14.945Z,10.28
2018-09-25T00:46:55.362Z,10.28
2018-09-25T00:47:35.751Z,10.38
2018-09-25T00:48:16.168Z,10.28
2018-09-25T00:48:56.525Z,10.38
2018-09-25T00:49:36.893Z,10.38
2018-09-25T00:50:17.313Z,10.46
2018-09-25T00:50:57.790Z,10.49
2018-09-25T00:51:38.180Z,10.51
2018-09-25T00:52:18.575Z,10.44
2018-09-25T00:52:58.967Z,10.44
2018-09-25T00:53:39.416Z,10.46
2018-09-25T00:54:19.775Z,10.46
2018-09-25T00:55:00.122Z,10.42
2018-09-25T00:55:40.543Z,10.32
2018-09-25T00:56:20.980Z,10.26
2018-09-25T00:57:01.342Z,10.38
2018-09-25T00:57:41.692Z,10.26
2018-09-25T00:58:22.099Z,10.25
2018-09-25T00:59:02.556Z,10.24
2018-09-25T00:59:42.908Z,10.25
2018-09-25T01:00:23.424Z,10.26
2018-09-25T01:01:03.809Z,10.24
2018-09-25T01:01:44.242Z,10.22
2018-09-25T01:02:24.673Z,10.42
2018-09-25T01:03:05.008Z,10.28
2018-09-25T01:03:45.382Z,10.39
2018-09-25T01:04:25.796Z,10.34
2018-09-25T01:05:06.201Z,10.36
2018-09-25T01:05:46.625Z,10.35
2018-09-25T01:06:26.974Z,10.46
2018-09-25T01:07:07.408Z,10.46
2018-09-25T01:07:47.867Z,10.44
2018-09-25T01:08:28.282Z,10.34
2018-09-25T01:09:08.701Z,10.29
2018-09-25T01:09:49.160Z,10.28
2018-09-25T01:10:29.602Z,10.32
2018-09-25T01:11:10.013Z,10.31
2018-09-25T01:11:50.450Z,10.39
2018-09-25T01:12:30.809Z,10.36
2018-09-25T01:13:11.272Z,10.36
2018-09-25T01:13:51.717Z,10.29
2018-09-25T01:14:32.069Z,10.32
2018-09-25T01:15:12.515Z,10.28
2018-09-25T01:15:52.858Z,10.29
2018-09-25T01:16:33.308Z,10.29
2018-09-25T01:17:13.787Z,10.26
2018-09-25T01:17:54.109Z,10.26
2018-09-25T01:18:34.543Z,10.22
2018-09-25T01:19:14.969Z,10.11
2018-09-25T01:19:55.366Z,10.07
2018-09-25T01:20:35.711Z,10.01
2018-09-25T01:21:16.173Z,9.89
2018-09-25T01:21:56.485Z,9.99
2018-09-25T01:22:36.941Z,9.93
2018-09-25T01:23:17.305Z,9.83
2018-09-25T01:23:57.707Z,9.78
2018-09-25T01:24:38.109Z,9.62
2018-09-25T01:25:18.573Z,9.73
2018-09-25T01:25:58.965Z,9.83
2018-09-25T01:26:39.364Z,9.91
2018-09-25T01:27:19.778Z,9.99
2018-09-25T01:28:00.222Z,9.96
2018-09-25T01:28:40.642Z,10.09
2018-09-25T01:29:21.021Z,9.99
2018-09-25T01:30:01.504Z,10.01
2018-09-25T01:30:41.953Z,10.06
2018-09-25T01:31:22.364Z,9.98
2018-09-25T01:32:02.777Z,9.99
2018-09-25T01:32:43.166Z,10.01
2018-09-25T01:33:23.566Z,9.91
2018-09-25T01:34:03.979Z,9.92
2018-09-25T01:34:44.352Z,9.93
2018-09-25T01:35:24.850Z,9.92
2018-09-25T01:36:05.300Z,9.88
2018-09-25T01:36:45.646Z,9.91
2018-09-25T01:37:26.104Z,9.85
2018-09-25T01:38:06.572Z,9.77
2018-09-25T01:38:47.014Z,9.75
2018-09-25T01:39:27.445Z,9.81
2018-09-25T01:40:07.846Z,9.75
2018-09-25T01:40:48.241Z,9.67
2018-09-25T01:41:28.664Z,9.65
2018-09-25T01:42:09.050Z,9.68
2018-09-25T01:42:49.566Z,9.7
2018-09-25T01:43:29.968Z,9.67
2018-09-25T01:44:10.345Z,9.77
2018-09-25T01:44:50.712Z,9.77
2018-09-25T01:45:31.087Z,9.81
2018-09-25T01:46:11.527Z,9.88
2018-09-25T01:46:51.886Z,9.93
2018-09-25T01:47:32.328Z,9.92
2018-09-25T01:48:12.752Z,9.96
2018-09-25T01:48:53.202Z,9.99
2018-09-25T01:49:33.558Z,10.01
2018-09-25T01:50:13.973Z,9.99
2018-09-25T01:50:54.387Z,10.01
2018-09-25T01:51:34.789Z,9.99
2018-09-25T01:52:15.171Z,9.83
2018-09-25T01:52:55.575Z,9.98
2018-09-25T01:53:35.971Z,9.91
2018-09-25T01:54:16.408Z,9.92
2018-09-25T01:54:56.842Z,9.86
2018-09-25T01:55:37.202Z,9.98
2018-09-25T01:56:17.596Z,9.95
2018-09-25T01:56:58.052Z,10.01
2018-09-25T01:57:38.445Z,9.95
2018-09-25T01:58:18.836Z,10.04
2018-09-25T01:58:59.245Z,10.06
2018-09-25T01:59:39.678Z,10.1
2018-09-25T02:00:20.108Z,10.11
2018-09-25T02:01:00.558Z,10.17
2018-09-25T02:01:40.978Z,10.17
2018-09-25T02:02:21.334Z,10.24
2018-09-25T02:03:01.790Z,10.22
2018-09-25T02:03:42.153Z,10.22
2018-09-25T02:04:22.621Z,10.24
2018-09-25T02:05:03.036Z,10.34
2018-09-25T02:05:43.448Z,10.35
2018-09-25T02:06:23.826Z,10.32
2018-09-25T02:07:04.230Z,10.26
2018-09-25T02:07:44.670Z,10.25
2018-09-25T02:08:25.063Z,10.24
2018-09-25T02:09:05.468Z,10.26
2018-09-25T02:09:45.891Z,10.25
2018-09-25T02:10:26.301Z,10.22
2018-09-25T02:11:06.718Z,10.17
2018-09-25T02:11:47.201Z,10.2
2018-09-25T02:12:27.576Z,10.13
2018-09-25T02:13:08.001Z,10.11
2018-09-25T02:13:48.378Z,10.04
2018-09-25T02:14:28.842Z,10.01
2018-09-25T02:15:09.241Z,10.02
2018-09-25T02:15:49.653Z,10.02
2018-09-25T02:16:30.082Z,10.02
2018-09-25T02:17:10.463Z,10.01
2018-09-25T02:17:50.919Z,10.07
2018-09-25T02:18:31.326Z,9.98
2018-09-25T02:19:11.672Z,10.06
2018-09-25T02:19:52.123Z,10.1
2018-09-25T02:20:32.527Z,10.14
2018-09-25T02:21:12.926Z,10.17
2018-09-25T02:21:53.327Z,10.13
2018-09-25T02:22:33.755Z,10.1
2018-09-25T02:23:14.214Z,10.01
2018-09-25T02:23:54.605Z,9.98
2018-09-25T02:24:35.025Z,9.98
2018-09-25T02:25:15.397Z,9.98
2018-09-25T05:07:41.185Z,6.35
2018-09-25T05:08:34.076Z,6.28
2018-09-25T05:09:26.658Z,6.33
2018-09-25T05:10:18.912Z,6.24
2018-09-25T05:11:11.610Z,6.27
2018-09-25T05:12:04.813Z,6.3
2018-09-25T05:12:57.497Z,6.27
2018-09-25T05:13:50.613Z,6.21
2018-09-25T05:14:43.232Z,6.25
2018-09-25T05:15:35.941Z,6.27
2018-09-25T05:16:27.981Z,6.33
2018-09-25T05:17:37.240Z,6.32
2018-09-25T05:18:49.722Z,6.43
2018-09-25T05:20:05.927Z,6.46
2018-09-25T05:21:20.424Z,6.54
2018-09-25T05:22:34.767Z,6.71
2018-09-25T05:23:47.507Z,6.83
2018-09-25T05:24:58.526Z,6.93
2018-09-25T05:26:12.287Z,6.87
2018-09-25T05:27:22.877Z,6.89
2018-09-25T05:28:38.288Z,6.87
2018-09-25T05:29:51.875Z,6.94
2018-09-25T05:31:06.213Z,6.94
2018-09-25T05:32:18.298Z,6.94
2018-09-25T05:33:30.966Z,7.01
2018-09-25T05:34:50.090Z,7.16
2018-09-25T05:36:03.175Z,7.16
2018-09-25T05:37:20.410Z,7.27
2018-09-25T05:38:33.207Z,7.37
2018-09-25T05:39:44.312Z,7.48
2018-09-25T05:40:57.904Z,7.54
2018-09-25T05:42:12.012Z,7.73
2018-09-25T05:43:29.350Z,7.84
2018-09-25T05:44:40.943Z,8.03
2018-09-25T05:46:01.857Z,8.27
2018-09-25T05:52:18.375Z,9.23
2018-09-25T05:53:28.469Z,9.38
2018-09-25T05:54:39.847Z,9.59
2018-09-25T05:55:56.496Z,9.65
2018-09-25T06:00:04.588Z,10.32
2018-09-25T06:01:17.279Z,10.44
2018-09-25T06:02:27.523Z,10.66
2018-09-25T06:03:43.104Z,10.99
2018-09-25T06:04:59.204Z,11.12
2018-09-25T06:06:15.925Z,11.31
2018-09-25T06:07:26.948Z,11.35
2018-09-25T06:08:42.673Z,11.62
2018-09-25T06:09:53.312Z,11.63
2018-09-25T06:11:04.380Z,11.79
2018-09-25T06:12:13.215Z,11.93
2018-09-25T06:13:23.732Z,11.97
2018-09-25T06:14:36.448Z,12.11
2018-09-25T06:15:47.745Z,12.36
2018-09-25T06:17:04.611Z,12.48
2018-09-25T06:18:22.090Z,12.58
2018-09-25T06:19:36.032Z,12.77
2018-09-25T06:20:48.284Z,13.01
2018-09-25T06:21:58.520Z,13.12
2018-09-25T06:23:07.616Z,13.28
2018-09-25T06:24:26.955Z,13.57
2018-09-25T06:25:37.737Z,13.65
2018-09-25T08:02:52.898Z,19.45
2018-09-25T08:04:03.722Z,19.32
2018-09-25T08:09:32.486Z,19.6
2018-09-25T08:14:45.192Z,20.31
2018-09-25T08:22:45.175Z,19.27
2018-09-25T08:23:43.220Z,19.07
2018-09-25T08:24:23.135Z,19.1
2018-09-25T08:25:03.636Z,19.28
2018-09-25T08:25:44.051Z,19.3
2018-09-25T08:26:24.613Z,19.32
2018-09-25T08:27:05.737Z,19.21
2018-09-25T08:27:45.636Z,19.09
2018-09-25T08:28:26.148Z,19.21
2018-09-25T08:29:06.795Z,19.13
2018-09-25T08:29:47.167Z,19.24
2018-09-25T08:30:42.174Z,19.23
2018-09-25T08:31:40.360Z,19.42
2018-09-25T08:41:03.537Z,21.19
2018-09-25T08:43:24.765Z,21.52
2018-09-25T08:44:05.893Z,21.3
2018-09-25T08:44:46.382Z,21.26
2018-09-25T08:45:26.768Z,21.21
2018-09-25T08:46:07.384Z,21.22
2018-09-25T08:46:48.892Z,21.12
2018-09-25T08:47:28.663Z,21.19
2018-09-25T08:48:09.024Z,21.24
2018-09-25T08:48:49.973Z,21.19
2018-09-25T08:49:30.525Z,21.16
2018-09-25T08:50:11.170Z,21.21
2018-09-25T08:50:52.880Z,21.24
2018-09-25T08:51:33.014Z,21.51
2018-09-25T08:52:13.359Z,21.56
2018-09-25T08:52:54.008Z,21.82
2018-09-25T08:53:34.661Z,21.83
2018-09-25T08:54:17.577Z,21.82
2018-09-25T08:55:06.067Z,21.98
2018-09-25T08:55:46.291Z,22.09
2018-09-25T08:56:26.722Z,22.27
2018-09-25T08:57:07.881Z,22.21
2018-09-25T08:57:48.275Z,22.36
2018-09-25T08:58:28.670Z,22.46
2018-09-25T08:59:09.133Z,22.59
2018-09-25T08:59:50.365Z,22.75
2018-09-25T09:00:30.345Z,22.75
2018-09-25T09:01:10.920Z,22.76
2018-09-25T09:01:51.299Z,22.72
2018-09-25T09:02:31.855Z,22.86
2018-09-25T09:03:12.458Z,22.93
2018-09-25T09:03:53.990Z,23.09
2018-09-25T09:04:33.987Z,23.14
2018-09-25T09:05:14.917Z,23.22
2018-09-25T09:05:55.959Z,23.19
2018-09-25T09:06:36.973Z,23.29
2018-09-25T09:07:18.995Z,23.5
2018-09-25T09:08:00.387Z,23.64
2018-09-25T09:08:40.236Z,23.72
2018-09-25T09:09:21.884Z,23.78
2018-09-25T09:10:02.381Z,23.86
2018-09-25T09:10:43.066Z,24.06
2018-09-25T09:11:24.691Z,24.16
2018-09-25T09:12:04.753Z,24.21
2018-09-25T09:12:46.029Z,24.31
2018-09-25T09:13:27.556Z,24.36
2018-09-25T09:14:08.867Z,24.27
2018-09-25T09:14:48.995Z,24.44
2018-09-25T09:15:30.653Z,24.19
2018-09-25T09:16:11.027Z,24.11
2018-09-25T09:16:51.836Z,24.11
2018-09-25T09:17:32.245Z,24.16
2018-09-25T09:18:13.418Z,24.16
2018-09-25T09:18:53.527Z,24.16
2018-09-25T09:19:34.307Z,24.23
2018-09-25T09:20:15.472Z,24.21
2018-09-25T09:20:56.122Z,24.31
2018-09-25T09:21:37.490Z,24.41
2018-09-25T09:22:18.489Z,24.48
2018-09-25T09:22:58.912Z,24.59
2018-09-25T09:23:39.145Z,24.67
2018-09-25T09:24:19.850Z,24.75
2018-09-25T09:25:00.547Z,24.84
2018-09-25T09:25:41.259Z,24.87
2018-09-25T09:26:21.723Z,24.93
2018-09-25T09:27:02.126Z,25.07
2018-09-25T09:27:43.872Z,25.2
2018-09-25T09:28:25.127Z,25.24
2018-09-25T09:29:05.155Z,25.36
2018-09-25T09:29:45.803Z,25.22
2018-09-25T09:30:26.787Z,25.2
2018-09-25T09:31:07.170Z,25.11
2018-09-25T09:31:47.811Z,24.93
2018-09-25T09:32:28.939Z,24.94
2018-09-25T09:33:09.203Z,24.94
2018-09-25T09:33:49.550Z,24.93
2018-09-25T09:34:30.098Z,24.93
2018-09-25T09:35:10.526Z,25.04
2018-09-25T09:35:51.078Z,25.2
2018-09-25T09:36:31.521Z,25.36
2018-09-25T09:37:12.092Z,25.46
2018-09-25T09:37:53.289Z,25.72
2018-09-25T09:38:33.913Z,25.89
2018-09-25T09:39:15.192Z,25.85
2018-09-25T09:39:55.088Z,25.93
2018-09-25T09:40:35.958Z,26.01
2018-09-25T09:41:16.454Z,26.03
2018-09-25T09:41:57.195Z,25.74
2018-09-25T09:42:37.931Z,25.38
2018-09-25T09:43:18.376Z,25.14
2018-09-25T09:43:58.857Z,25.08
2018-09-25T09:44:39.666Z,25.04
2018-09-25T09:45:20.160Z,25.05
2018-09-25T09:46:00.833Z,25.19
2018-09-25T09:46:41.677Z,25.29
2018-09-25T09:47:22.318Z,25.3
2018-09-25T09:48:03.032Z,25.34
2018-09-25T09:48:43.514Z,25.41
2018-09-25T09:49:24.021Z,25.39
2018-09-25T09:50:04.750Z,25.38
2018-09-25T09:50:45.354Z,25.07
2018-09-25T09:51:25.901Z,24.89
2018-09-25T09:52:06.297Z,24.83
2018-09-25T09:52:46.667Z,24.74
2018-09-25T09:53:27.204Z,24.84
2018-09-25T09:54:11.295Z,24.83
2018-09-25T09:54:51.766Z,24.84
2018-09-25T09:55:32.492Z,24.97
2018-09-25T09:56:12.991Z,24.93
2018-09-25T09:56:53.668Z,25.05
2018-09-25T09:57:36.748Z,25.02
2018-09-25T09:58:18.351Z,25.27
2018-09-25T09:58:58.922Z,25.51
2018-09-25T09:59:40.127Z,25.75
2018-09-25T10:00:20.874Z,26.04
2018-09-25T10:01:04.518Z,26.24
2018-09-25T10:01:46.933Z,26.41
2018-09-25T10:02:27.366Z,26.35
2018-09-25T10:03:07.822Z,26.49
2018-09-25T10:03:48.532Z,26.5
2018-09-25T10:04:29.674Z,26.61
2018-09-25T10:05:10.561Z,26.61
2018-09-25T10:05:51.073Z,26.49
2018-09-25T10:06:31.463Z,26.44
2018-09-25T10:07:12.027Z,26.5
2018-09-25T10:07:52.330Z,26.42
2018-09-25T10:08:32.775Z,26.47
2018-09-25T10:11:45.112Z,25.83
2018-09-25T10:12:25.556Z,25.79
2018-09-25T10:13:05.952Z,25.83
2018-09-25T10:13:46.400Z,25.71
2018-09-25T10:14:27.710Z,25.69
2018-09-25T10:15:08.323Z,25.53
2018-09-25T10:15:48.919Z,25.64
2018-09-25T10:16:29.373Z,25.48
2018-09-25T10:17:09.750Z,25.53
2018-09-25T10:17:50.314Z,25.6
2018-09-25T10:18:31.013Z,25.67
2018-09-25T10:19:11.225Z,25.96
2018-09-25T10:19:51.653Z,26.08
2018-09-25T10:20:32.112Z,26.29
2018-09-25T10:21:12.482Z,26.41
2018-09-25T10:21:52.936Z,26.51
2018-09-25T10:22:33.405Z,26.46
2018-09-25T10:23:13.748Z,26.38
2018-09-25T10:23:54.186Z,26.44
2018-09-25T10:24:34.602Z,26.49
2018-09-25T10:25:15.050Z,26.66
2018-09-25T10:25:55.511Z,26.78
2018-09-25T10:26:36.132Z,26.87
2018-09-25T10:27:16.633Z,26.97
2018-09-25T10:27:57.046Z,27.12
2018-09-25T10:28:37.531Z,27.08
2018-09-25T10:29:18.000Z,26.88
2018-09-25T11:06:40.892Z,27.45
2018-09-25T11:19:28.108Z,24.63
2018-09-25T11:27:08.156Z,23.57
2018-09-25T11:31:17.533Z,22.94
2018-09-25T11:34:02.229Z,22.31
2018-09-25T11:35:35.036Z,22.11
2018-09-25T11:37:55.902Z,21.99
2018-09-25T11:39:22.315Z,22.24
2018-09-25T11:52:54.536Z,24.31
2018-09-25T11:54:04.104Z,24.42
2018-09-25T11:54:49.617Z,24.41
2018-09-25T11:55:45.030Z,24.31
2018-09-25T11:56:26.470Z,24.23
2018-09-25T11:57:07.380Z,24.23
2018-09-25T11:57:48.384Z,24.18
2018-09-25T11:58:28.317Z,24.11
2018-09-25T11:59:08.649Z,24.18
2018-09-25T11:59:49.068Z,23.79
2018-09-25T12:00:29.533Z,23.41
2018-09-25T12:01:10.265Z,23.15
2018-09-25T12:01:50.730Z,22.96
2018-09-25T12:03:46.281Z,22.84
2018-09-25T12:05:07.353Z,23.11
2018-09-25T12:06:27.121Z,23.47
2018-09-25T12:07:40.785Z,23.75
2018-09-25T12:08:50.894Z,23.97
2018-09-25T12:10:38.598Z,24.42
2018-09-25T12:11:56.547Z,24.84
2018-09-25T12:13:03.190Z,25.16
2018-09-25T12:13:43.680Z,25.38
2018-09-25T12:14:24.448Z,25.38
2018-09-25T12:15:05.811Z,25.51
2018-09-25T12:15:46.310Z,25.69
2018-09-25T12:16:26.709Z,25.72
2018-09-25T12:17:07.213Z,25.82
2018-09-25T12:17:48.944Z,25.93
2018-09-25T12:18:29.156Z,25.97
2018-09-25T12:19:10.381Z,25.98
2018-09-25T12:19:50.552Z,26.01
2018-09-25T12:20:30.679Z,26.06
2018-09-25T12:21:11.498Z,26.13
2018-09-25T12:21:51.934Z,26.19
2018-09-25T12:22:32.306Z,26.24
2018-09-25T12:23:12.802Z,26.17
2018-09-25T12:23:53.193Z,26.21
2018-09-25T12:24:33.670Z,26.32
2018-09-25T12:25:14.027Z,26.46
2018-09-25T12:25:54.564Z,26.6
2018-09-25T12:26:35.043Z,26.69
2018-09-25T12:27:15.512Z,26.71
2018-09-25T12:27:55.902Z,26.75
2018-09-25T12:28:36.420Z,26.64
2018-09-25T12:29:16.835Z,26.32
2018-09-25T12:29:57.331Z,26.2
2018-09-25T12:30:37.751Z,26.19
2018-09-25T12:31:18.172Z,26.27
2018-09-25T12:31:58.857Z,26.32
2018-09-25T12:32:39.381Z,26.29
2018-09-25T12:33:19.776Z,26.27
2018-09-25T12:34:00.099Z,26.16
2018-09-25T12:34:49.140Z,25.69
2018-09-25T12:35:29.417Z,25.11
2018-09-25T12:36:09.895Z,24.77
2018-09-25T12:38:23.089Z,24
2018-09-25T12:39:33.199Z,23.47
2018-09-25T12:40:35.288Z,23.09
2018-09-25T12:41:15.097Z,23.06
2018-09-25T12:41:55.511Z,23.18
2018-09-25T12:42:35.951Z,23.16
2018-09-25T12:43:16.416Z,23.14
2018-09-25T12:43:56.909Z,23.19
2018-09-25T12:44:37.480Z,23.23
2018-09-25T12:45:18.083Z,23.35
2018-09-25T12:45:58.568Z,23.41
2018-09-25T12:46:38.959Z,23.38
2018-09-25T12:47:19.428Z,23.21
2018-09-25T12:47:59.840Z,23.21
2018-09-25T12:49:10.674Z,23.12
2018-09-25T12:50:48.254Z,22.82
2018-09-25T12:51:27.451Z,22.78
2018-09-25T12:52:12.765Z,22.81
2018-09-25T12:52:54.591Z,22.75
2018-09-25T12:53:34.611Z,22.84
2018-09-25T12:54:16.793Z,22.96
2018-09-25T12:54:57.570Z,22.89
2018-09-25T12:55:38.475Z,22.99
2018-09-25T12:56:19.066Z,23.15
2018-09-25T12:57:01.345Z,23.21
2018-09-25T12:57:41.978Z,23.23
2018-09-25T12:58:23.409Z,23.23
2018-09-25T12:59:03.971Z,23.32
2018-09-25T12:59:44.797Z,23.35
2018-09-25T13:00:25.985Z,23.41
2018-09-25T13:01:06.319Z,23.39
2018-09-25T13:01:47.820Z,23.25
2018-09-25T13:02:29.495Z,23.09
2018-09-25T13:03:10.432Z,22.86
2018-09-25T13:03:52.446Z,22.78
2018-09-25T13:04:33.465Z,22.72
2018-09-25T13:05:14.428Z,22.86
2018-09-25T13:05:55.122Z,22.91
2018-09-25T13:06:35.616Z,22.84
2018-09-25T13:07:17.725Z,22.91
2018-09-25T13:07:57.918Z,23.06
2018-09-25T13:08:39.472Z,22.94
2018-09-25T13:09:19.945Z,22.79
2018-09-25T13:10:02.239Z,22.72
2018-09-25T13:10:43.944Z,22.74
2018-09-25T13:11:24.948Z,22.82
2018-09-25T13:12:04.923Z,22.79
2018-09-25T13:12:45.929Z,22.75
2018-09-25T13:13:26.875Z,22.76
2018-09-25T13:14:08.648Z,22.61
2018-09-25T13:14:49.419Z,22.52
2018-09-25T13:15:29.360Z,22.41
2018-09-25T13:16:09.879Z,22.12
2018-09-25T13:16:50.748Z,22.08
2018-09-25T13:17:30.968Z,21.98
2018-09-25T13:18:11.747Z,21.83
2018-09-25T13:18:54.968Z,21.73
2018-09-25T13:19:35.372Z,21.68
2018-09-25T13:20:15.988Z,21.59
2018-09-25T13:20:56.753Z,21.63
2018-09-25T13:21:37.602Z,21.63
2018-09-25T13:22:18.933Z,21.53
2018-09-25T13:22:59.150Z,21.52
2018-09-25T13:23:41.615Z,21.46
2018-09-25T13:24:22.520Z,21.43
2018-09-25T13:25:03.044Z,21.53
2018-09-25T13:25:43.878Z,21.56
2018-09-25T13:26:24.939Z,21.66
2018-09-25T13:27:08.656Z,21.82
2018-09-25T13:29:07.816Z,22.11
2018-09-25T13:31:47.121Z,22.84
2018-09-25T13:32:36.939Z,23.16
2018-09-25T13:33:20.101Z,23.22
2018-09-25T13:34:01.404Z,23.38
2018-09-25T13:34:42.248Z,23.39
2018-09-25T13:35:23.714Z,23.54
2018-09-25T13:36:05.235Z,23.41
2018-09-25T13:37:43.963Z,23.67
2018-09-25T13:38:28.216Z,23.63
2018-09-25T13:39:12.248Z,23.81
2018-09-25T13:44:54.431Z,24.39
2018-09-25T13:49:21.245Z,24.7
2018-09-25T13:50:01.035Z,24.46
2018-09-25T13:50:42.389Z,24.19
2018-09-25T13:51:23.125Z,23.78
2018-09-25T13:52:03.239Z,23.45
2018-09-25T13:52:44.191Z,23.21
2018-09-25T13:53:24.925Z,23.06
2018-09-25T13:54:05.347Z,22.94
2018-09-25T13:54:46.133Z,23.06
2018-09-25T13:55:29.148Z,23
2018-09-25T13:56:10.378Z,23.04
2018-09-25T13:56:51.479Z,23.12
2018-09-25T13:57:31.721Z,22.96
2018-09-25T13:58:12.297Z,22.89
2018-09-25T13:58:53.870Z,22.78
2018-09-25T13:59:33.342Z,22.76
2018-09-25T14:00:14.760Z,22.74
2018-09-25T14:00:57.154Z,22.76
2018-09-25T14:01:36.288Z,22.74
2018-09-25T14:02:16.795Z,22.82
2018-09-25T14:02:57.717Z,23
2018-09-25T14:03:40.486Z,23.09
2018-09-25T14:04:21.029Z,23.07
2018-09-25T14:05:01.659Z,23.25
2018-09-25T14:05:43.314Z,23.38
2018-09-25T14:06:27.634Z,23.45
2018-09-25T14:07:08.157Z,23.6
2018-09-25T14:07:49.147Z,23.69
2018-09-25T14:08:29.242Z,23.63
2018-09-25T14:09:10.100Z,23.77
2018-09-25T14:09:50.707Z,23.71
2018-09-25T14:10:31.420Z,23.6
2018-09-25T14:11:14.490Z,23.59
2018-09-25T14:11:56.177Z,23.45
2018-09-25T14:12:36.055Z,23.35
2018-09-25T14:13:17.660Z,23.35
2018-09-25T14:13:58.780Z,23.21
2018-09-25T14:14:38.610Z,23.25
2018-09-25T14:15:19.118Z,23.22
2018-09-25T14:16:00.435Z,23.03
2018-09-25T14:16:41.113Z,22.75
2018-09-25T14:17:22.128Z,22.38
2018-09-25T14:18:02.196Z,22.23
2018-09-25T14:18:42.733Z,22.12
2018-09-25T14:19:23.219Z,21.9
2018-09-25T14:20:04.134Z,21.75
2018-09-25T14:20:44.532Z,21.52
2018-09-25T14:21:24.969Z,21.42
2018-09-25T14:22:05.476Z,21.53
2018-09-25T14:22:46.188Z,21.56
2018-09-25T14:23:26.623Z,21.52
2018-09-25T14:24:07.141Z,21.58
2018-09-25T14:24:48.254Z,21.48
2018-09-25T14:25:28.229Z,21.24
2018-09-25T14:26:08.665Z,21.18
2018-09-25T14:26:49.187Z,21.15
2018-09-25T14:27:29.614Z,21.01
2018-09-25T14:28:10.761Z,20.82
2018-09-25T14:28:51.321Z,20.72
2018-09-25T14:29:31.761Z,20.71
2018-09-25T14:30:12.264Z,20.64
2018-09-25T14:30:52.748Z,20.72
2018-09-25T14:31:33.158Z,20.83
2018-09-25T14:32:13.625Z,20.9
2018-09-25T14:32:54.063Z,21.05
2018-09-25T14:33:34.642Z,21
2018-09-25T14:34:15.347Z,21.18
2018-09-25T14:34:56.721Z,21.24
2018-09-25T14:35:36.418Z,21.28
2018-09-25T14:36:16.911Z,21.31
2018-09-25T14:36:57.327Z,21.36
2018-09-25T14:37:37.725Z,21.22
2018-09-25T14:38:18.247Z,21.18
2018-09-25T14:38:59.305Z,21.01
2018-09-25T14:39:39.921Z,20.87
2018-09-25T14:40:20.375Z,20.9
2018-09-25T14:41:00.845Z,20.71
2018-09-25T14:41:41.267Z,20.57
2018-09-25T14:42:21.719Z,20.46
2018-09-25T14:43:02.099Z,20.54
2018-09-25T14:43:42.507Z,20.54
2018-09-25T14:44:22.921Z,20.61
2018-09-25T14:45:03.304Z,20.63
2018-09-25T14:45:45.007Z,20.83
2018-09-25T14:46:25.445Z,21.05
2018-09-25T14:47:05.955Z,21.13
2018-09-25T14:47:46.409Z,21.26
2018-09-25T14:48:26.924Z,21.33
2018-09-25T14:49:07.407Z,21.43
2018-09-25T14:49:47.794Z,21.52
2018-09-25T14:50:28.269Z,21.56
2018-09-25T14:51:08.752Z,21.63
2018-09-25T14:51:49.282Z,21.63
2018-09-25T14:52:29.630Z,21.63
2018-09-25T14:53:10.052Z,21.64
2018-09-25T14:53:50.481Z,21.82
2018-09-25T14:54:30.929Z,21.82
2018-09-25T14:55:11.350Z,21.89
2018-09-25T14:55:51.828Z,21.83
2018-09-25T14:56:33.382Z,21.79
2018-09-25T14:57:13.991Z,21.63
2018-09-25T14:57:55.097Z,21.59
2018-09-25T14:58:35.551Z,21.42
2018-09-25T15:05:15.285Z,20.01
2018-09-25T15:07:11.028Z,19.9
2018-09-25T15:07:50.936Z,19.75
2018-09-25T15:08:32.219Z,19.76
2018-09-25T15:09:13.210Z,19.78
2018-09-25T15:09:53.174Z,19.89
2018-09-25T15:10:33.079Z,19.98
2018-09-25T15:11:13.606Z,20.1
2018-09-25T15:11:55.028Z,20.15
2018-09-25T15:12:35.928Z,20.26
2018-09-25T15:13:16.555Z,20.33
2018-09-25T15:13:57.686Z,20.27
2018-09-25T15:14:37.858Z,20.27
2018-09-25T15:15:19.223Z,20.38
2018-09-25T15:15:59.540Z,20.48
2018-09-25T15:16:41.212Z,20.54
2018-09-25T15:17:21.776Z,20.61
2018-09-25T15:18:01.594Z,20.64
2018-09-25T15:18:42.098Z,20.5
2018-09-25T15:19:22.885Z,20.44
2018-09-25T15:20:03.433Z,20.27
2018-09-25T15:20:44.668Z,20.31
2018-09-25T15:21:25.217Z,20.34
2018-09-25T15:22:05.686Z,20.26
2018-09-25T15:22:46.694Z,20.37
2018-09-25T15:23:26.402Z,20.42
2018-09-25T15:24:07.243Z,20.3
2018-09-25T15:24:47.919Z,20.4
2018-09-25T15:25:28.453Z,20.31
2018-09-25T15:26:09.627Z,20.26
2018-09-25T15:27:54.235Z,20.35
2018-09-25T15:31:26.860Z,20.3
2018-09-25T15:32:07.961Z,20.4
2018-09-25T15:32:49.539Z,20.42
2018-09-25T15:33:32.902Z,20.27
2018-09-25T15:34:14.244Z,20.3
2018-09-25T15:34:55.944Z,20.46
2018-09-25T15:35:37.731Z,20.51
2018-09-25T15:36:17.903Z,20.41
2018-09-25T15:36:58.849Z,20.46
2018-09-25T15:37:39.230Z,20.44
2018-09-25T15:38:21.372Z,20.48
2018-09-25T15:39:02.680Z,20.46
2018-09-25T15:39:44.402Z,20.56
2018-09-25T15:40:28.729Z,20.42
2018-09-25T15:41:11.696Z,20.31
2018-09-25T15:41:54.682Z,20.31
2018-09-25T15:42:34.833Z,20.19
2018-09-25T15:43:15.090Z,20.05
2018-09-25T15:43:55.777Z,19.94
2018-09-25T15:44:37.368Z,19.86
2018-09-25T15:45:17.398Z,19.86
2018-09-25T15:45:59.353Z,19.92
2018-09-25T15:46:41.186Z,19.87
2018-09-25T15:47:20.738Z,19.9
2018-09-25T15:48:03.321Z,19.8
2018-09-25T15:48:45.357Z,19.72
2018-09-25T15:49:26.382Z,19.7
2018-09-25T15:50:06.895Z,19.68
2018-09-25T15:50:47.389Z,19.6
2018-09-25T15:51:28.091Z,19.47
2018-09-25T15:52:09.327Z,19.52
2018-09-25T15:52:50.862Z,19.46
2018-09-25T15:53:32.584Z,19.32
2018-09-25T15:54:14.171Z,19.2
2018-09-25T15:54:54.020Z,19.2
2018-09-25T15:55:34.847Z,19.07
2018-09-25T15:56:15.360Z,19.06
2018-09-25T15:56:56.037Z,18.91
2018-09-25T15:57:38.433Z,18.83
2018-09-25T15:58:20.102Z,18.76
2018-09-25T15:59:00.598Z,18.71
2018-09-25T15:59:41.171Z,18.62
2018-09-25T16:00:22.188Z,18.42
2018-09-25T16:01:02.239Z,18.46
2018-09-25T16:01:42.795Z,18.39
2018-09-25T16:02:23.292Z,18.36
2018-09-25T16:03:03.738Z,18.31
2018-09-25T16:03:44.238Z,18.19
2018-09-25T16:04:24.741Z,18.17
2018-09-25T16:05:06.007Z,18.2
2018-09-25T16:05:46.980Z,18.21
2018-09-25T16:06:27.801Z,18.1